Time;durP1;ratioP1;P1;durP2;ratioP2;P2;SDS_P1;SDS_P2;PMS_P1;PMS_P2;Temp;Humidity;BMP_temperature;BMP_pressure;BME280_temperature;BME280_humidity;BME280_pressure;Samples;Min_cycle;Max_cycle;Signal;HPM_P1;HPM_P2
2022/04/07 00:01:59;;;;;;;;;;;;;;;20.45;44.07;98945.03;4976998;28;4100;-58
2022/04/07 00:04:25;;;;;;;;;;;;;;;20.45;44.13;98930.66;4970745;28;5437;-59
2022/04/07 00:06:52;;;;;;;;;;;;;;;20.45;44.06;98930.66;4977057;28;4307;-58
2022/04/07 00:09:18;;;;;;;;;;;;;;;20.44;44.04;98920.59;4975997;28;4339;-59
2022/04/07 00:11:44;;;;;;;;;;;;;;;20.43;44.12;98919.16;4972697;28;4270;-58
2022/04/07 00:14:11;;;;;;;;;;;;;;;20.44;44.01;98911.97;4974366;28;4062;-58
2022/04/07 00:16:38;;;;;;;;;;;;;;;20.43;44.10;98919.16;4976316;28;5519;-59
2022/04/07 00:19:05;;;;;;;;;;;;;;;20.44;44.01;98909.09;4976424;28;4243;-58
2022/04/07 00:21:40;;;;;;;;;;;;;;;20.43;44.05;98907.66;4975611;28;4114;-59
2022/04/07 00:24:07;;;;;;;;;;;;;;;20.42;44.01;98897.56;4976001;28;5328;-58
2022/04/07 00:26:34;;;;;;;;;;;;;;;20.41;44.13;98899.00;4973869;28;4436;-59
2022/04/07 00:29:00;;;;;;;;;;;;;;;20.43;44.04;98895.41;4963452;28;4179;-58
2022/04/07 00:31:26;;;;;;;;;;;;;;;20.42;44.02;98891.09;4967447;28;5508;-59
2022/04/07 00:33:53;;;;;;;;;;;;;;;20.41;44.13;98893.25;4972945;28;4212;-58
2022/04/07 00:36:19;;;;;;;;;;;;;;;20.40;44.10;98883.16;4973681;28;4590;-58
2022/04/07 00:38:46;;;;;;;;;;;;;;;20.41;44.01;98887.50;4977802;28;5421;-59
2022/04/07 00:41:12;;;;;;;;;;;;;;;20.40;44.07;98880.28;4973830;28;4288;-58
2022/04/07 00:43:38;;;;;;;;;;;;;;;20.40;43.98;98870.94;4973422;28;4248;-59
2022/04/07 00:46:05;;;;;;;;;;;;;;;20.39;44.07;98873.09;4971985;28;5004;-59
2022/04/07 00:48:35;;;;;;;;;;;;;;;20.38;44.13;98865.88;4976728;28;4293;-59
2022/04/07 00:51:02;;;;;;;;;;;;;;;20.39;43.94;98858.72;4974442;28;4255;-59
2022/04/07 00:53:29;;;;;;;;;;;;;;;20.38;44.01;98862.28;4971584;28;4216;-59
2022/04/07 00:56:00;;;;;;;;;;;;;;;20.36;44.02;98850.75;4975719;28;5344;-58
2022/04/07 00:58:27;;;;;;;;;;;;;;;20.36;44.09;98857.22;4971590;28;5410;-59
2022/04/07 01:00:53;;;;;;;;;;;;;;;20.38;44.02;98856.53;4974602;28;5329;-59
2022/04/07 01:03:20;;;;;;;;;;;;;;;20.36;44.02;98857.22;4971830;28;4313;-58
2022/04/07 01:05:46;;;;;;;;;;;;;;;20.35;44.08;98843.56;4972531;28;5326;-58
2022/04/07 01:08:12;;;;;;;;;;;;;;;20.34;44.09;98842.84;4974864;28;4189;-59
2022/04/07 01:10:39;;;;;;;;;;;;;;;20.35;44.06;98850.03;4971356;28;4180;-58
2022/04/07 01:13:05;;;;;;;;;;;;;;;20.39;44.01;98844.38;4975361;28;5405;-59
2022/04/07 01:15:31;;;;;;;;;;;;;;;20.42;43.89;98837.22;4975442;28;4199;-58
2022/04/07 01:17:58;;;;;;;;;;;;;;;20.43;43.97;98838.69;4958915;28;4135;-59
2022/04/07 01:20:24;;;;;;;;;;;;;;;20.42;44.08;98831.47;4975781;28;5364;-59
2022/04/07 01:22:51;;;;;;;;;;;;;;;20.44;44.01;98817.13;4973491;28;4176;-58
2022/04/07 01:25:18;;;;;;;;;;;;;;;20.43;44.12;98832.94;4973463;28;4255;-58
2022/04/07 01:27:49;;;;;;;;;;;;;;;20.43;44.15;98827.19;4973046;28;4518;-59
2022/04/07 01:30:15;;;;;;;;;;;;;;;20.43;44.13;98820.69;4963810;28;4167;-58
2022/04/07 01:32:45;;;;;;;;;;;;;;;20.45;44.15;98812.81;4967905;28;4282;-58
2022/04/07 01:35:12;;;;;;;;;;;;;;;20.44;44.14;98816.41;4972826;28;4084;-59
2022/04/07 01:37:38;;;;;;;;;;;;;;;20.46;44.12;98817.16;4976110;28;4238;-59
2022/04/07 01:40:06;;;;;;;;;;;;;;;20.46;44.07;98807.81;4969459;28;4541;-59
2022/04/07 01:42:33;;;;;;;;;;;;;;;20.45;44.08;98801.31;4973157;28;4273;-58
2022/04/07 01:45:00;;;;;;;;;;;;;;;20.44;44.08;98802.75;4969559;28;4080;-58
2022/04/07 01:47:26;;;;;;;;;;;;;;;20.43;44.16;98797.69;4970187;28;4508;-59
2022/04/07 01:49:55;;;;;;;;;;;;;;;20.43;44.09;98798.44;4975889;28;4145;-59
2022/04/07 01:52:21;;;;;;;;;;;;;;;20.43;44.14;98798.44;4973594;28;4488;-58
2022/04/07 01:54:47;;;;;;;;;;;;;;;20.42;44.24;98802.72;4971845;28;4398;-58
2022/04/07 01:57:14;;;;;;;;;;;;;;;20.43;44.29;98795.56;4974183;28;4382;-58
2022/04/07 01:59:40;;;;;;;;;;;;;;;20.42;44.04;98791.22;4975730;28;4198;-59
2022/04/07 02:02:06;;;;;;;;;;;;;;;20.42;44.11;98791.22;4973402;28;4274;-58
2022/04/07 02:04:33;;;;;;;;;;;;;;;20.42;44.04;98788.34;4974644;28;4210;-58
2022/04/07 02:06:59;;;;;;;;;;;;;;;20.42;44.07;98785.47;4972697;28;4253;-59
2022/04/07 02:09:26;;;;;;;;;;;;;;;20.41;44.03;98784.03;4973840;28;4268;-59
2022/04/07 02:11:52;;;;;;;;;;;;;;;20.41;44.06;98778.28;4974391;28;4074;-59
2022/04/07 02:14:18;;;;;;;;;;;;;;;20.39;43.99;98774.66;4972469;28;4215;-58
2022/04/07 02:16:45;;;;;;;;;;;;;;;20.39;44.07;98763.16;4970163;28;5461;-59
2022/04/07 02:19:11;;;;;;;;;;;;;;;20.38;43.99;98762.41;4971719;28;4091;-59
2022/04/07 02:21:37;;;;;;;;;;;;;;;20.39;43.98;98763.16;4971358;28;4069;-57
2022/04/07 02:24:05;;;;;;;;;;;;;;;20.38;43.98;98756.66;4972584;28;4150;-59
2022/04/07 02:26:31;;;;;;;;;;;;;;;20.36;43.94;98753.75;4975601;28;4095;-59
2022/04/07 02:28:58;;;;;;;;;;;;;;;20.37;43.92;98760.97;4970424;28;4048;-59
2022/04/07 02:31:24;;;;;;;;;;;;;;;20.36;43.98;98753.03;4974294;28;4013;-59
2022/04/07 02:33:50;;;;;;;;;;;;;;;20.36;43.99;98742.25;4974693;28;4104;-59
2022/04/07 02:36:19;;;;;;;;;;;;;;;20.36;43.91;98742.25;4973547;28;4290;-60
2022/04/07 02:38:45;;;;;;;;;;;;;;;20.34;43.97;98733.66;4972579;28;4268;-58
2022/04/07 02:41:11;;;;;;;;;;;;;;;20.34;43.94;98742.25;4977734;28;5802;-59
2022/04/07 02:43:38;;;;;;;;;;;;;;;20.33;44.05;98732.19;4973584;28;4532;-58
2022/04/07 02:46:04;;;;;;;;;;;;;;;20.35;43.89;98728.63;4975077;28;4062;-58
2022/04/07 02:48:31;;;;;;;;;;;;;;;20.36;43.87;98736.53;4974879;28;4072;-59
2022/04/07 02:50:57;;;;;;;;;;;;;;;20.38;43.86;98727.94;4976735;28;5394;-59
2022/04/07 02:53:25;;;;;;;;;;;;;;;20.39;43.79;98735.13;4972787;28;4294;-58
2022/04/07 02:55:51;;;;;;;;;;;;;;;20.40;43.99;98727.94;4978701;28;4159;-58
2022/04/07 02:58:17;;;;;;;;;;;;;;;20.34;44.26;98730.78;4977055;28;4174;-59
2022/04/07 03:00:44;;;;;;;;;;;;;;;20.36;44.21;98725.03;4979561;28;5464;-59
2022/04/07 03:03:10;;;;;;;;;;;;;;;20.34;44.41;98722.16;4975121;28;4182;-59
2022/04/07 03:05:37;;;;;;;;;;;;;;;20.36;44.50;98719.28;4976686;28;5429;-58
2022/04/07 03:08:03;;;;;;;;;;;;;;;20.36;44.40;98707.78;4972777;28;5358;-61
2022/04/07 03:10:29;;;;;;;;;;;;;;;20.36;44.36;98713.53;4973746;28;4265;-59
2022/04/07 03:12:56;;;;;;;;;;;;;;;20.37;44.58;98697.75;4978425;28;4252;-59
2022/04/07 03:15:23;;;;;;;;;;;;;;;20.37;44.59;98703.50;4974897;28;4179;-59
2022/04/07 03:17:49;;;;;;;;;;;;;;;20.35;44.59;98694.13;4977629;28;4396;-59
2022/04/07 03:20:15;;;;;;;;;;;;;;;20.39;44.56;98688.44;4972444;28;4370;-59
2022/04/07 03:22:43;;;;;;;;;;;;;;;20.37;44.54;98686.25;4977886;28;4130;-59
2022/04/07 03:25:09;;;;;;;;;;;;;;;20.38;44.57;98681.94;4973104;28;4204;-59
2022/04/07 03:27:36;;;;;;;;;;;;;;;20.40;44.64;98681.97;4972201;28;4623;-59
2022/04/07 03:30:03;;;;;;;;;;;;;;;20.39;44.61;98676.94;4976066;28;4243;-59
2022/04/07 03:32:29;;;;;;;;;;;;;;;20.38;44.64;98681.94;4975650;28;5273;-60
2022/04/07 03:34:56;;;;;;;;;;;;;;;20.42;44.42;98673.38;4976822;28;4567;-58
2022/04/07 03:37:22;;;;;;;;;;;;;;;20.41;44.36;98680.56;4973410;28;4025;-58
2022/04/07 03:39:49;;;;;;;;;;;;;;;20.42;44.24;98684.88;4976271;28;4444;-58
2022/04/07 03:42:16;;;;;;;;;;;;;;;20.42;44.12;98670.50;4978407;28;4224;-58
2022/04/07 03:44:42;;;;;;;;;;;;;;;20.40;44.31;98673.34;4976904;28;4163;-58
2022/04/07 03:47:08;;;;;;;;;;;;;;;20.42;44.53;98675.53;4974544;28;5577;-58
2022/04/07 03:49:35;;;;;;;;;;;;;;;20.42;44.74;98664.03;4979817;28;4161;-58
2022/04/07 03:52:01;;;;;;;;;;;;;;;20.43;44.57;98659.72;4978475;28;4168;-58
2022/04/07 03:54:28;;;;;;;;;;;;;;;20.42;44.69;98664.75;4976983;28;4060;-58
2022/04/07 03:56:54;;;;;;;;;;;;;;;20.43;44.72;98674.09;4978845;28;4054;-58
2022/04/07 03:59:20;;;;;;;;;;;;;;;20.41;44.55;98662.56;4978813;28;5337;-58
2022/04/07 04:01:47;;;;;;;;;;;;;;;20.41;44.54;98653.94;4973105;28;4235;-58
2022/04/07 04:04:15;;;;;;;;;;;;;;;20.42;44.46;98647.50;4974305;28;4965;-58
2022/04/07 04:06:42;;;;;;;;;;;;;;;20.42;44.41;98641.75;4976642;28;4270;-58
2022/04/07 04:09:08;;;;;;;;;;;;;;;20.42;44.45;98641.03;4975106;28;5307;-58
2022/04/07 04:11:35;;;;;;;;;;;;;;;20.40;44.49;98646.75;4975606;28;4315;-58
2022/04/07 04:14:01;;;;;;;;;;;;;;;20.41;44.50;98633.81;4977421;28;4179;-58
2022/04/07 04:16:29;;;;;;;;;;;;;;;20.41;44.51;98630.94;4976252;28;4165;-58
2022/04/07 04:18:56;;;;;;;;;;;;;;;20.39;44.45;98625.91;4973557;28;4222;-58
2022/04/07 04:21:23;;;;;;;;;;;;;;;20.39;44.47;98619.44;4974304;28;4553;-58
2022/04/07 04:23:49;;;;;;;;;;;;;;;20.38;44.47;98618.69;4977763;28;4235;-58
2022/04/07 04:26:16;;;;;;;;;;;;;;;20.38;44.50;98612.97;4980460;28;4562;-58
2022/04/07 04:28:42;;;;;;;;;;;;;;;20.38;44.51;98610.09;4973976;28;5259;-58
2022/04/07 04:31:09;;;;;;;;;;;;;;;20.39;44.53;98600.06;4973774;28;4275;-59
2022/04/07 04:33:35;;;;;;;;;;;;;;;20.36;44.62;98598.56;4974492;28;4162;-58
2022/04/07 04:36:01;;;;;;;;;;;;;;;20.38;44.81;98607.22;4979561;28;5292;-58
2022/04/07 04:38:28;;;;;;;;;;;;;;;20.37;44.92;98602.91;4975711;28;4614;-58
2022/04/07 04:40:54;;;;;;;;;;;;;;;20.36;45.10;98595.69;4976891;28;4264;-58
2022/04/07 04:43:21;;;;;;;;;;;;;;;20.35;45.28;98591.38;4975438;28;4158;-58
2022/04/07 04:45:47;;;;;;;;;;;;;;;20.36;45.14;98592.81;4978687;28;4103;-58
2022/04/07 04:48:13;;;;;;;;;;;;;;;20.38;45.23;98589.25;4977142;28;4237;-58
2022/04/07 04:50:40;;;;;;;;;;;;;;;20.35;45.16;98573.41;4976604;28;4273;-58
2022/04/07 04:53:06;;;;;;;;;;;;;;;20.38;45.11;98584.22;4975087;28;5439;-58
2022/04/07 04:55:32;;;;;;;;;;;;;;;20.39;45.17;98579.94;4976203;28;4088;-58
2022/04/07 04:57:59;;;;;;;;;;;;;;;20.38;45.25;98572.00;4975303;28;5396;-58
2022/04/07 05:00:25;;;;;;;;;;;;;;;20.38;44.98;98572.72;4973193;28;4079;-58
2022/04/07 05:02:52;;;;;;;;;;;;;;;20.35;45.21;98570.53;4975165;28;4237;-58
2022/04/07 05:05:18;;;;;;;;;;;;;;;20.41;45.08;98570.59;4971868;28;4244;-58
2022/04/07 05:07:45;;;;;;;;;;;;;;;20.43;45.01;98559.09;4972332;28;4264;-58
2022/04/07 05:10:11;;;;;;;;;;;;;;;20.41;44.97;98559.84;4974102;28;5478;-59
2022/04/07 05:12:37;;;;;;;;;;;;;;;20.44;44.99;98551.94;4975713;28;4240;-59
2022/04/07 05:15:06;;;;;;;;;;;;;;;20.40;45.04;98546.88;4974843;28;4334;-61
2022/04/07 05:17:32;;;;;;;;;;;;;;;20.43;45.11;98545.47;4978962;28;4167;-58
2022/04/07 05:19:59;;;;;;;;;;;;;;;20.47;44.92;98548.38;4975287;28;4275;-58
2022/04/07 05:22:25;;;;;;;;;;;;;;;20.48;44.93;98544.09;4974641;28;4524;-61
2022/04/07 05:24:52;;;;;;;;;;;;;;;20.51;44.15;98542.66;4970988;28;4099;-60
2022/04/07 05:27:18;;;;;;;;;;;;;;;20.29;44.05;98539.59;4976067;28;4197;-61
2022/04/07 05:29:44;;;;;;;;;;;;;;;20.29;44.45;98531.69;4980138;28;4258;-60
2022/04/07 05:32:11;;;;;;;;;;;;;;;20.36;44.33;98529.59;4976121;28;5093;-60
2022/04/07 05:34:38;;;;;;;;;;;;;;;20.36;44.56;98529.59;4973531;28;4166;-60
2022/04/07 05:37:04;;;;;;;;;;;;;;;20.40;44.49;98529.63;4975363;28;4555;-61
2022/04/07 05:39:30;;;;;;;;;;;;;;;20.45;44.40;98528.22;4976522;28;4203;-60
2022/04/07 05:41:57;;;;;;;;;;;;;;;20.47;44.33;98528.25;4975323;28;4445;-60
2022/04/07 05:44:23;;;;;;;;;;;;;;;20.47;44.29;98513.88;4970708;28;4190;-60
2022/04/07 05:46:51;;;;;;;;;;;;;;;20.49;44.14;98525.41;4977680;28;4269;-60
2022/04/07 05:49:17;;;;;;;;;;;;;;;20.49;44.18;98519.66;4974439;28;3959;-60
2022/04/07 05:51:44;;;;;;;;;;;;;;;20.50;44.14;98511.75;4976933;28;4121;-59
2022/04/07 05:54:13;;;;;;;;;;;;;;;20.54;43.96;98514.66;4977160;28;4192;-59
2022/04/07 05:56:39;;;;;;;;;;;;;;;20.54;44.11;98508.19;4973958;28;4190;-59
2022/04/07 05:59:06;;;;;;;;;;;;;;;20.54;43.79;98503.16;4977602;28;4182;-60
2022/04/07 06:01:32;;;;;;;;;;;;;;;20.50;44.02;98506.00;4976520;28;4097;-60
2022/04/07 06:03:58;;;;;;;;;;;;;;;20.54;43.90;98508.19;4974042;28;4404;-59
2022/04/07 06:06:25;;;;;;;;;;;;;;;20.64;44.45;98508.31;4974476;28;4366;-59
2022/04/07 06:08:51;;;;;;;;;;;;;;;20.76;44.09;98496.88;4975596;28;4400;-58
2022/04/07 06:11:18;;;;;;;;;;;;;;;20.81;43.60;98507.00;4977142;28;4303;-58
2022/04/07 06:13:44;;;;;;;;;;;;;;;20.85;43.46;98501.28;4967705;28;4071;-58
2022/04/07 06:16:10;;;;;;;;;;;;;;;20.88;43.32;98493.38;4969888;28;4468;-59
2022/04/07 06:18:37;;;;;;;;;;;;;;;20.82;42.93;98499.81;4976277;28;4167;-58
2022/04/07 06:21:03;;;;;;;;;;;;;;;20.81;42.80;98489.00;4973800;28;4240;-66
2022/04/07 06:23:32;;;;;;;;;;;;;;;20.80;42.77;98485.41;4974394;28;4141;-58
2022/04/07 06:25:58;;;;;;;;;;;;;;;20.84;42.81;98499.09;4974212;28;4045;-59
2022/04/07 06:28:25;;;;;;;;;;;;;;;20.86;42.76;98502.69;4974420;28;5100;-59
2022/04/07 06:30:54;;;;;;;;;;;;;;;20.86;43.19;98491.19;4972137;28;4237;-57
2022/04/07 06:33:21;;;;;;;;;;;;;;;20.87;43.33;98492.66;4967022;28;5339;-58
2022/04/07 06:35:48;;;;;;;;;;;;;;;20.87;43.37;98480.44;4975184;28;4092;-58
2022/04/07 06:38:15;;;;;;;;;;;;;;;20.89;43.26;98478.28;4971999;28;5355;-57
2022/04/07 06:40:41;;;;;;;;;;;;;;;20.92;43.46;98467.53;4974041;28;4088;-59
2022/04/07 06:43:07;;;;;;;;;;;;;;;20.89;43.54;98463.91;4976968;28;4155;-60
2022/04/07 06:45:34;;;;;;;;;;;;;;;20.88;44.08;98468.19;4971910;28;4315;-61
2022/04/07 06:48:00;;;;;;;;;;;;;;;20.96;44.02;98464.66;4969139;28;4179;-58
2022/04/07 06:50:26;;;;;;;;;;;;;;;21.01;43.77;98451.03;4972288;28;4384;-60
2022/04/07 06:52:53;;;;;;;;;;;;;;;20.95;43.79;98456.75;4968441;28;4113;-58
2022/04/07 06:55:20;;;;;;;;;;;;;;;21.01;43.73;98448.16;4970437;28;5317;-57
2022/04/07 06:57:49;;;;;;;;;;;;;;;21.01;43.83;98445.28;4962356;28;4271;-60
2022/04/07 07:00:15;;;;;;;;;;;;;;;21.08;43.75;98455.38;4954923;28;4288;-61
2022/04/07 07:02:41;;;;;;;;;;;;;;;21.16;43.53;98452.53;4963285;28;4263;-62
2022/04/07 07:05:08;;;;;;;;;;;;;;;21.23;43.74;98451.13;4967091;28;4040;-64
2022/04/07 07:07:34;;;;;;;;;;;;;;;21.30;43.50;98449.00;4968071;28;4237;-62
2022/04/07 07:10:01;;;;;;;;;;;;;;;21.34;43.48;98441.09;4974557;28;5322;-62
2022/04/07 07:12:27;;;;;;;;;;;;;;;21.39;43.53;98438.25;4969961;28;3994;-59
2022/04/07 07:14:53;;;;;;;;;;;;;;;21.44;43.12;98422.44;4971683;28;4252;-59
2022/04/07 07:17:20;;;;;;;;;;;;;;;21.41;43.37;98412.38;4969151;28;4383;-59
2022/04/07 07:19:46;;;;;;;;;;;;;;;21.43;43.46;98415.25;4970862;28;4123;-61
2022/04/07 07:22:12;;;;;;;;;;;;;;;21.45;43.38;98418.13;4970833;28;5240;-61
2022/04/07 07:24:39;;;;;;;;;;;;;;;21.48;43.25;98405.19;4970373;28;4131;-60
2022/04/07 07:27:05;;;;;;;;;;;;;;;21.52;43.16;98393.69;4972510;28;5321;-60
2022/04/07 07:29:31;;;;;;;;;;;;;;;21.53;43.30;98395.84;4971751;28;4123;-58
2022/04/07 07:31:58;;;;;;;;;;;;;;;21.53;43.24;98389.34;4972806;28;4176;-59
2022/04/07 07:34:25;;;;;;;;;;;;;;;21.56;43.06;98375.72;4971849;28;5101;-58
2022/04/07 07:36:51;;;;;;;;;;;;;;;21.58;43.03;98372.81;4969933;28;4261;-61
2022/04/07 07:39:18;;;;;;;;;;;;;;;21.60;43.03;98382.19;4972484;28;4588;-62
2022/04/07 07:41:45;;;;;;;;;;;;;;;21.64;43.19;98375.72;4977488;28;4085;-62
2022/04/07 07:44:11;;;;;;;;;;;;;;;21.64;43.61;98376.44;4973938;28;4404;-62
2022/04/07 07:46:38;;;;;;;;;;;;;;;21.64;43.12;98359.16;4978205;28;5563;-60
2022/04/07 07:49:08;;;;;;;;;;;;;;;21.66;43.27;98350.50;4977462;28;5334;-62
2022/04/07 07:51:36;;;;;;;;;;;;;;;21.69;43.63;98337.56;4971148;28;4245;-59
2022/04/07 07:54:02;;;;;;;;;;;;;;;21.67;43.48;98333.94;4969736;28;4211;-60
2022/04/07 07:56:28;;;;;;;;;;;;;;;21.67;43.90;98334.69;4977069;28;4184;-58
2022/04/07 07:59:02;;;;;;;;;;;;;;;21.70;43.07;98336.13;4974035;28;4170;-58
2022/04/07 08:01:29;;;;;;;;;;;;;;;21.71;43.27;98331.78;4972491;28;4014;-57
2022/04/07 08:03:55;;;;;;;;;;;;;;;21.72;43.03;98330.38;4973906;28;4247;-60
2022/04/07 08:06:22;;;;;;;;;;;;;;;21.71;42.93;98323.16;4973834;28;5187;-60
2022/04/07 08:08:48;;;;;;;;;;;;;;;21.71;43.30;98328.91;4979178;28;4148;-60
2022/04/07 08:11:20;;;;;;;;;;;;;;;21.76;43.59;98315.25;4969635;28;4443;-60
2022/04/07 08:13:46;;;;;;;;;;;;;;;21.67;43.50;98323.19;4973095;28;4024;-59
2022/04/07 08:16:13;;;;;;;;;;;;;;;21.45;42.24;98303.00;4969327;28;4544;-59
2022/04/07 08:18:39;;;;;;;;;;;;;;;21.33;42.09;98310.13;4974088;28;4212;-59
2022/04/07 08:21:05;;;;;;;;;;;;;;;21.30;42.02;98300.06;4972607;28;4294;-59
2022/04/07 08:23:32;;;;;;;;;;;;;;;21.27;42.16;98292.84;4975572;28;4074;-60
2022/04/07 08:25:58;;;;;;;;;;;;;;;21.25;42.36;98297.88;4969628;28;5247;-60
2022/04/07 08:28:25;;;;;;;;;;;;;;;21.24;42.39;98285.66;4968454;28;4514;-59
2022/04/07 08:30:51;;;;;;;;;;;;;;;21.24;42.71;98291.41;4971193;28;4530;-67
2022/04/07 08:33:18;;;;;;;;;;;;;;;21.32;42.52;98288.53;4969972;28;4161;-60
2022/04/07 08:35:44;;;;;;;;;;;;;;;21.31;42.39;98272.72;4975384;28;4176;-60
2022/04/07 08:38:14;;;;;;;;;;;;;;;21.31;42.41;98272.72;4973998;28;4459;-59
2022/04/07 08:40:41;;;;;;;;;;;;;;;21.31;42.36;98266.25;4975092;28;4177;-59
2022/04/07 08:43:08;;;;;;;;;;;;;;;21.33;42.24;98269.84;4968791;28;4240;-60
2022/04/07 08:45:35;;;;;;;;;;;;;;;20.75;41.67;98279.75;4969153;28;4330;-61
2022/04/07 08:48:02;;;;;;;;;;;;;;;21.02;42.43;98294.25;4973537;28;4217;-62
2022/04/07 08:50:28;;;;;;;;;;;;;;;21.15;42.45;98272.69;4974734;28;4198;-62
2022/04/07 08:52:54;;;;;;;;;;;;;;;21.19;42.25;98266.97;4971188;28;4195;-62
2022/04/07 08:55:21;;;;;;;;;;;;;;;21.22;42.47;98259.03;4976012;28;4155;-60
2022/04/07 08:57:47;;;;;;;;;;;;;;;21.27;42.37;98261.19;4975064;28;4213;-63
2022/04/07 09:00:15;;;;;;;;;;;;;;;21.27;42.49;98255.44;4963701;28;4341;-60
2022/04/07 09:02:41;;;;;;;;;;;;;;;21.29;42.42;98252.56;4976342;28;4169;-60
2022/04/07 09:05:11;;;;;;;;;;;;;;;21.31;42.40;98235.31;4974305;28;4123;-62
2022/04/07 09:07:37;;;;;;;;;;;;;;;21.19;42.56;98241.06;4974035;28;4552;-61
2022/04/07 09:10:04;;;;;;;;;;;;;;;21.27;42.57;98225.94;4967660;28;4145;-60
2022/04/07 09:12:30;;;;;;;;;;;;;;;21.32;42.57;98218.75;4970966;28;4426;-60
2022/04/07 09:14:57;;;;;;;;;;;;;;;21.31;42.58;98212.28;4971764;28;4211;-64
2022/04/07 09:17:23;;;;;;;;;;;;;;;21.32;42.49;98202.19;4969762;28;4159;-63
2022/04/07 09:19:50;;;;;;;;;;;;;;;21.33;42.46;98194.31;4965677;28;4020;-61
2022/04/07 09:22:16;;;;;;;;;;;;;;;21.37;42.56;98193.56;4968686;28;4044;-61
2022/04/07 09:24:43;;;;;;;;;;;;;;;21.38;42.49;98189.25;4970014;28;4257;-60
2022/04/07 09:27:10;;;;;;;;;;;;;;;21.36;42.83;98184.22;4967345;28;4056;-62
2022/04/07 09:29:37;;;;;;;;;;;;;;;21.37;42.41;98164.78;4969682;28;4110;-62
2022/04/07 09:32:04;;;;;;;;;;;;;;;21.37;42.34;98182.78;4971843;28;5453;-62
2022/04/07 09:34:31;;;;;;;;;;;;;;;21.37;42.45;98171.25;4968566;28;4256;-60
2022/04/07 09:37:08;;;;;;;;;;;;;;;21.39;42.30;98174.13;4972755;28;4264;-60
2022/04/07 09:39:36;;;;;;;;;;;;;;;21.39;42.60;98161.91;4968918;28;4070;-60
2022/04/07 09:42:19;;;;;;;;;;;;;;;21.34;42.49;98159.03;4974085;28;4199;-60
2022/04/07 09:44:50;;;;;;;;;;;;;;;21.36;42.48;98152.56;4968770;28;4098;-60
2022/04/07 09:47:17;;;;;;;;;;;;;;;21.36;42.44;98161.19;4969309;28;4434;-63
2022/04/07 09:49:43;;;;;;;;;;;;;;;21.37;42.38;98147.50;4974421;28;5268;-63
2022/04/07 09:52:10;;;;;;;;;;;;;;;21.39;42.33;98144.63;4976044;28;5316;-63
2022/04/07 09:54:38;;;;;;;;;;;;;;;21.37;42.23;98133.13;4972680;28;5549;-62
2022/04/07 09:57:04;;;;;;;;;;;;;;;21.37;42.30;98121.59;4966826;28;5584;-62
2022/04/07 09:59:31;;;;;;;;;;;;;;;21.34;42.53;98115.84;4967065;28;4137;-61
2022/04/07 10:01:58;;;;;;;;;;;;;;;21.37;42.50;98107.94;4971068;28;4088;-63
2022/04/07 10:04:24;;;;;;;;;;;;;;;21.36;42.43;98086.34;4969784;28;4247;-64
2022/04/07 10:06:52;;;;;;;;;;;;;;;21.34;42.46;98075.56;4970944;28;4221;-61
2022/04/07 10:09:19;;;;;;;;;;;;;;;21.36;42.30;98079.91;4965307;28;4244;-59
2022/04/07 10:11:45;;;;;;;;;;;;;;;21.34;42.32;98074.84;4970126;28;4338;-62
2022/04/07 10:14:14;;;;;;;;;;;;;;;21.37;42.49;98072.69;4964586;28;4380;-59
2022/04/07 10:16:44;;;;;;;;;;;;;;;21.39;42.47;98050.38;4969920;28;4364;-59
2022/04/07 10:19:21;;;;;;;;;;;;;;;21.36;42.50;98048.94;4962648;28;4091;-59
2022/04/07 10:21:51;;;;;;;;;;;;;;;21.37;42.43;98041.03;4968519;28;5337;-60
2022/04/07 10:24:31;;;;;;;;;;;;;;;21.34;42.48;98034.56;4971619;28;4161;-62
2022/04/07 10:27:18;;;;;;;;;;;;;;;21.34;42.53;98029.50;4971387;28;4080;-62
2022/04/07 10:30:00;;;;;;;;;;;;;;;21.36;42.37;98013.69;4964440;28;4299;-62
2022/04/07 10:32:33;;;;;;;;;;;;;;;21.36;42.29;98002.19;4967774;28;4574;-60
2022/04/07 10:35:00;;;;;;;;;;;;;;;21.34;42.34;97994.25;4968736;28;4170;-58
2022/04/07 10:37:27;;;;;;;;;;;;;;;20.55;41.15;97972.06;4973380;28;5398;-60
2022/04/07 10:39:53;;;;;;;;;;;;;;;20.92;41.80;97973.50;4968726;28;4369;-60
2022/04/07 10:42:40;;;;;;;;;;;;;;;21.12;42.25;97969.16;4973170;28;4041;-59
2022/04/07 10:45:07;;;;;;;;;;;;;;;21.22;42.55;97957.63;4972021;28;4061;-59
2022/04/07 10:47:33;;;;;;;;;;;;;;;21.24;42.49;97951.84;4961211;28;4250;-60
2022/04/07 10:49:59;;;;;;;;;;;;;;;21.25;42.33;97959.03;4960929;28;4586;-61
2022/04/07 10:52:26;;;;;;;;;;;;;;;21.23;42.33;97947.53;4970258;28;5710;-61
2022/04/07 10:55:11;;;;;;;;;;;;;;;21.27;42.58;97927.38;4972811;28;4083;-59
2022/04/07 10:57:56;;;;;;;;;;;;;;;21.26;42.40;97925.97;4970545;28;4200;-60
2022/04/07 11:00:22;;;;;;;;;;;;;;;21.25;42.41;97907.25;4962821;28;4225;-60
2022/04/07 11:03:09;;;;;;;;;;;;;;;21.28;42.37;97916.56;4968896;28;4252;-59
2022/04/07 11:05:51;;;;;;;;;;;;;;;21.22;42.56;97914.44;4974231;28;6318;-59
2022/04/07 11:08:20;;;;;;;;;;;;;;;21.15;42.71;97904.41;4972277;28;4177;-59
2022/04/07 11:10:48;;;;;;;;;;;;;;;21.25;42.56;97895.72;4969822;28;4394;-58
2022/04/07 11:13:14;;;;;;;;;;;;;;;21.21;42.17;97875.63;4970170;28;4466;-58
2022/04/07 11:15:50;;;;;;;;;;;;;;;21.27;42.43;97864.06;4979471;28;4239;-59
2022/04/07 11:18:20;;;;;;;;;;;;;;;21.27;42.51;97861.19;4976961;28;4199;-59
2022/04/07 11:21:04;;;;;;;;;;;;;;;21.28;42.38;97848.25;4972903;28;5390;-59
2022/04/07 11:23:43;;;;;;;;;;;;;;;21.32;42.40;97850.38;4972807;28;5249;-59
2022/04/07 11:26:10;;;;;;;;;;;;;;;21.31;42.32;97829.53;4969880;28;4466;-59
2022/04/07 11:28:37;;;;;;;;;;;;;;;21.33;42.24;97820.88;4972752;28;4041;-59
2022/04/07 11:31:04;;;;;;;;;;;;;;;21.33;42.41;97823.03;4969692;28;5475;-58
2022/04/07 11:33:35;;;;;;;;;;;;;;;21.34;42.44;97813.66;4974555;28;4179;-57
2022/04/07 11:36:06;;;;;;;;;;;;;;;21.38;42.44;97803.59;4974576;28;4469;-58
2022/04/07 11:38:36;;;;;;;;;;;;;;;21.34;42.38;97805.03;4974004;28;4172;-58
2022/04/07 11:41:06;;;;;;;;;;;;;;;21.39;42.31;97793.50;4968628;28;4269;-59
2022/04/07 11:43:34;;;;;;;;;;;;;;;21.37;42.36;97807.91;4973440;28;4327;-59
2022/04/07 11:46:02;;;;;;;;;;;;;;;21.47;42.22;97793.50;4968666;28;4314;-58
2022/04/07 11:48:50;;;;;;;;;;;;;;;21.44;42.12;97789.16;4973294;28;4210;-59
2022/04/07 11:51:17;;;;;;;;;;;;;;;21.40;42.33;97777.69;4967649;28;4315;-60
2022/04/07 11:53:52;;;;;;;;;;;;;;;21.39;42.21;97782.69;4975817;28;4218;-59
2022/04/07 11:56:20;;;;;;;;;;;;;;;21.39;42.18;97770.47;4973039;28;4414;-59
2022/04/07 11:58:52;;;;;;;;;;;;;;;21.42;42.19;97775.53;4974493;28;4238;-60
2022/04/07 12:01:19;;;;;;;;;;;;;;;21.44;42.34;97774.78;4970840;28;4277;-59
2022/04/07 12:03:49;;;;;;;;;;;;;;;21.17;42.20;97777.81;4971727;28;4403;-58
2022/04/07 12:06:16;;;;;;;;;;;;;;;21.17;42.75;97774.94;4973561;28;4247;-57
2022/04/07 12:08:42;;;;;;;;;;;;;;;21.29;43.05;97763.34;4974255;28;4198;-54
2022/04/07 12:11:08;;;;;;;;;;;;;;;21.42;42.80;97760.44;4969970;28;5236;-58
2022/04/07 12:13:35;;;;;;;;;;;;;;;21.39;42.45;97753.91;4968242;28;4455;-58
2022/04/07 12:16:02;;;;;;;;;;;;;;;21.46;42.49;97751.75;4972748;28;4257;-58
2022/04/07 12:18:29;;;;;;;;;;;;;;;21.43;42.37;97730.91;4976219;28;4192;-58
2022/04/07 12:20:59;;;;;;;;;;;;;;;21.49;42.47;97733.03;4971887;28;4257;-58
2022/04/07 12:23:26;;;;;;;;;;;;;;;21.46;42.30;97728.72;4975678;28;5408;-59
2022/04/07 12:25:59;;;;;;;;;;;;;;;21.46;42.46;97717.19;4975240;28;4155;-59
2022/04/07 12:28:32;;;;;;;;;;;;;;;21.46;42.37;97691.31;4971736;28;4208;-59
2022/04/07 12:30:59;;;;;;;;;;;;;;;21.45;42.42;97715.78;4968124;28;4258;-59
2022/04/07 12:33:38;;;;;;;;;;;;;;;21.46;42.35;97711.44;4972658;28;5544;-58
2022/04/07 12:36:05;;;;;;;;;;;;;;;21.46;42.37;97688.41;4974083;28;5339;-59
2022/04/07 12:38:31;;;;;;;;;;;;;;;21.45;42.43;97684.84;4970951;28;4315;-58
2022/04/07 12:41:08;;;;;;;;;;;;;;;21.45;42.43;97675.50;4971584;28;6206;-56
2022/04/07 12:43:43;;;;;;;;;;;;;;;21.48;42.81;97668.25;4971016;28;4194;-58
2022/04/07 12:46:10;;;;;;;;;;;;;;;21.44;42.59;97654.63;4973799;28;5247;-55
2022/04/07 12:48:37;;;;;;;;;;;;;;;21.41;42.44;97635.22;4970927;28;4369;-60
2022/04/07 12:51:21;;;;;;;;;;;;;;;21.37;42.69;97612.91;4971679;28;4246;-59
2022/04/07 12:53:47;;;;;;;;;;;;;;;21.38;42.56;97630.91;4973028;28;4525;-60
2022/04/07 12:56:20;;;;;;;;;;;;;;;21.41;42.79;97624.44;4973772;28;4161;-58
2022/04/07 12:58:46;;;;;;;;;;;;;;;21.47;42.83;97612.16;4973288;28;4267;-59
2022/04/07 13:01:20;;;;;;;;;;;;;;;21.49;42.88;97592.69;4966693;28;4462;-60